Winsted, MN (55395)

10:48 PM CST on January 24, 2015 (GMT -0600)
Winsted Township | Change Station
CLOSE
Current Station
Personal Weather Station
Location: Winsted, MN
Elevation: 1027 ft
Nearby Weather Stations

Elev 1027 ft 44.96 °N, 94.07 °W | Updated 48 seconds ago

Overcast
Overcast
33.8 °F
Feels Like 34 °F
N
0.0
Wind Variable Wind from NE

Today
High -- | Low -- °F
--% Chance of Precip.
Yesterday
High -- | Low -- °F
Precip. -- in
7:44 AM 5:12 PM
Waxing Crescent, 28% visible
Pressure 29.62 in
Visibility 10.0 miles
Clouds Scattered Clouds 2300 ft
Mostly Cloudy 8000 ft
Overcast 9000 ft
Windchill 34 °F
Dew Point 31 °F
Humidity 89%
Rainfall 0.00 in
Snow Depth Not available.
UV 0 out of 12
Pollen .10 out of 12
Air Quality Not available.
Flu Activity Not available.
METAR KGYL 250434Z AUTO 02004KT 10SM SCT023 BKN080 OVC090 01/01 A2962 RMK AO2 T00140011

More Conditions Fewer Conditions

Pressure 29.62 in
Visibility 10.0 miles
Clouds Scattered Clouds 2300 ft
Mostly Cloudy 8000 ft
Overcast 9000 ft
Windchill 34 °F
Dew Point 31 °F
Humidity 89%
Rainfall 0.00 in
Snow Depth Not available.
UV 0 out of 12
Pollen .10 out of 12
Air Quality Not available.
Flu Activity Not available.
METAR KGYL 250434Z AUTO 02004KT 10SM SCT023 BKN080 OVC090 01/01 A2962 RMK AO2 T00140011

More Conditions Fewer Conditions

10-Day Weather Forecast

Almanac

Astronomy

Jan. 24, 2015 Rise Set
Actual Time
Civil Twilight
Nautical Twilight
Astronomical Twilight
Moon
Length of Visible Light
Length of Day
Tomorrow will be .
, % of the Moon is Illuminated

Today's Extremes

State Highs State Lows

Community

WunderPhotos

Upload Photos

1,789,839 photos uploaded!

WunderBlogs® & News

Nearby

Air Quality

  Air Quality AQ Index Pollutant
Not available.

Snow Depth

Station Depth Elevation

Earthquake Activity

City Distance Mag. Time & Date
Minimum magnitude displayed is 2.5.

Coastal Water Temperatures

Place Temperature

Nearby Weather Stations